createdAt,value
2024-01-04T00:01:24.944Z,7.85
2024-01-04T00:03:54.898Z,7.87
2024-01-04T00:06:27.410Z,7.87
2024-01-04T00:08:57.327Z,7.86
2024-01-04T00:11:27.279Z,7.78
2024-01-04T00:13:57.148Z,7.78
2024-01-04T00:16:27.026Z,7.78
2024-01-04T00:18:57.060Z,7.76
2024-01-04T00:21:29.672Z,7.71
2024-01-04T00:24:02.067Z,7.71
2024-01-04T00:26:31.973Z,7.70
2024-01-04T00:29:01.995Z,7.68
2024-01-04T00:31:31.881Z,7.65
2024-01-04T00:34:01.884Z,7.68
2024-01-04T00:36:34.953Z,7.65
2024-01-04T00:39:09.101Z,7.69
2024-01-04T00:41:40.769Z,7.68
2024-01-04T00:44:10.687Z,7.69
2024-01-04T00:46:40.602Z,7.66
2024-01-04T00:49:10.621Z,7.64
2024-01-04T00:51:43.393Z,7.65
2024-01-04T00:54:13.973Z,7.69
2024-01-04T00:56:43.921Z,7.67
2024-01-04T00:59:13.816Z,7.64
2024-01-04T01:01:43.717Z,7.61
2024-01-04T01:04:13.591Z,7.59
2024-01-04T01:06:46.183Z,7.57
2024-01-04T01:09:16.281Z,7.53
2024-01-04T01:11:46.356Z,7.52
2024-01-04T01:14:16.340Z,7.50
2024-01-04T01:16:47.024Z,7.46
2024-01-04T01:19:17.064Z,7.39
2024-01-04T01:21:49.603Z,7.32
2024-01-04T01:24:19.521Z,7.27
2024-01-04T01:26:49.460Z,7.23
2024-01-04T01:29:19.381Z,7.20
2024-01-04T01:31:49.452Z,7.17
2024-01-04T01:34:19.447Z,7.15
2024-01-04T01:36:52.213Z,7.18
2024-01-04T01:39:26.150Z,7.15
2024-01-04T01:41:56.634Z,7.14
2024-01-04T01:44:26.598Z,7.13
2024-01-04T01:46:57.391Z,7.18
2024-01-04T01:49:27.460Z,7.15
2024-01-04T01:52:00.603Z,7.13
2024-01-04T01:54:30.776Z,7.14
2024-01-04T01:57:00.736Z,7.15
2024-01-04T01:59:31.661Z,7.18
2024-01-04T02:02:01.602Z,7.20
2024-01-04T02:04:31.473Z,7.25
2024-01-04T02:07:04.984Z,7.13
2024-01-04T02:09:34.942Z,7.10
2024-01-04T02:12:09.015Z,7.09
2024-01-04T02:14:39.786Z,7.06
2024-01-04T02:17:10.154Z,7.07
2024-01-04T02:19:40.483Z,6.96
2024-01-04T02:22:13.258Z,6.93
2024-01-04T02:24:45.741Z,6.89
2024-01-04T02:27:16.279Z,6.87
2024-01-04T02:29:46.342Z,6.85
2024-01-04T02:32:16.247Z,6.82
2024-01-04T02:34:46.127Z,6.80
2024-01-04T02:37:16.154Z,6.82
2024-01-04T02:39:50.537Z,6.85
2024-01-04T02:42:20.496Z,6.84
2024-01-04T02:44:50.479Z,6.91
2024-01-04T02:47:20.387Z,6.84
2024-01-04T02:49:50.359Z,6.81
2024-01-04T02:52:20.305Z,6.84
2024-01-04T02:54:52.836Z,6.87
2024-01-04T02:57:22.709Z,6.90
2024-01-04T02:59:52.616Z,6.88
2024-01-04T03:02:22.622Z,6.85
2024-01-04T03:04:52.611Z,6.84
2024-01-04T03:07:23.464Z,6.83
2024-01-04T03:09:56.620Z,6.82
2024-01-04T03:12:26.560Z,6.83
2024-01-04T03:14:56.605Z,6.80
2024-01-04T03:17:27.950Z,6.78
2024-01-04T03:19:57.893Z,6.78
2024-01-04T03:22:27.827Z,6.71
2024-01-04T03:25:00.366Z,6.74
2024-01-04T03:27:30.271Z,6.75
2024-01-04T03:30:00.310Z,6.75
2024-01-04T03:32:30.582Z,6.82
2024-01-04T03:35:00.624Z,6.82
2024-01-04T03:37:30.534Z,6.80
2024-01-04T03:40:05.382Z,6.88
2024-01-04T03:42:35.349Z,6.81
2024-01-04T03:45:05.554Z,6.76
2024-01-04T03:47:36.182Z,6.72
2024-01-04T03:50:06.951Z,6.65
2024-01-04T03:52:36.988Z,6.63
2024-01-04T03:55:10.194Z,6.63
2024-01-04T03:57:40.093Z,6.60
2024-01-04T04:00:12.273Z,6.56
2024-01-04T04:02:42.658Z,6.58
2024-01-04T04:05:13.507Z,6.56
2024-01-04T04:07:43.365Z,6.56
2024-01-04T04:10:16.191Z,6.54
2024-01-04T04:12:46.135Z,6.54
2024-01-04T04:15:17.390Z,6.57
2024-01-04T04:17:47.827Z,6.62
2024-01-04T04:20:18.085Z,6.64
2024-01-04T04:22:47.973Z,6.60
2024-01-04T04:25:21.298Z,6.64
2024-01-04T04:27:51.262Z,6.66
2024-01-04T04:30:22.818Z,6.73
2024-01-04T04:32:52.828Z,6.74
2024-01-04T04:35:23.689Z,6.76
2024-01-04T04:37:53.913Z,6.75
2024-01-04T04:40:26.671Z,6.72
2024-01-04T04:42:56.605Z,6.69
2024-01-04T04:45:26.585Z,6.67
2024-01-04T04:47:56.645Z,6.65
2024-01-04T04:50:26.532Z,6.68
2024-01-04T04:52:56.427Z,6.61
2024-01-04T04:55:28.912Z,6.59
2024-01-04T04:57:58.782Z,6.58
2024-01-04T05:00:28.842Z,6.53
2024-01-04T05:02:58.901Z,6.50
2024-01-04T05:05:28.886Z,6.46
2024-01-04T05:07:59.523Z,6.41
2024-01-04T05:10:31.998Z,6.39
2024-01-04T05:13:02.259Z,6.38
2024-01-04T05:15:32.221Z,6.41
2024-01-04T05:18:02.278Z,6.43
2024-01-04T05:20:32.340Z,6.36
2024-01-04T05:23:02.241Z,6.31
2024-01-04T05:25:34.751Z,6.25
2024-01-04T05:28:04.671Z,6.27
2024-01-04T05:30:34.708Z,6.26
2024-01-04T05:33:05.031Z,6.32
2024-01-04T05:35:35.067Z,6.26
2024-01-04T05:38:04.953Z,6.26
2024-01-04T05:40:40.367Z,6.17
2024-01-04T05:43:10.247Z,6.17
2024-01-04T05:45:40.396Z,6.23
2024-01-04T05:48:11.224Z,6.17
2024-01-04T05:50:41.291Z,6.16
2024-01-04T05:53:11.284Z,6.09
2024-01-04T05:55:43.828Z,6.10
2024-01-04T05:58:13.755Z,6.06
2024-01-04T06:00:43.763Z,6.07
2024-01-04T06:03:13.725Z,6.12
2024-01-04T06:05:43.756Z,6.11
2024-01-04T06:08:13.676Z,6.15
2024-01-04T06:10:46.181Z,6.15
2024-01-04T06:13:16.117Z,6.12
2024-01-04T06:15:46.994Z,6.12
2024-01-04T06:18:17.058Z,6.03
2024-01-04T06:20:47.005Z,6.00
2024-01-04T06:23:17.096Z,5.98
2024-01-04T06:25:49.745Z,6.02
2024-01-04T06:28:19.619Z,6.03
2024-01-04T06:30:49.847Z,6.02
2024-01-04T06:33:22.198Z,6.00
2024-01-04T06:35:52.811Z,6.05
2024-01-04T06:38:23.430Z,6.03
2024-01-04T06:40:59.205Z,6.03
2024-01-04T06:43:29.459Z,6.04
2024-01-04T06:45:59.606Z,6.04
2024-01-04T06:48:29.725Z,6.01
2024-01-04T06:50:59.816Z,6.01
2024-01-04T06:53:29.774Z,5.98
2024-01-04T06:56:02.261Z,6.00
2024-01-04T06:58:32.117Z,6.00
2024-01-04T07:01:02.585Z,5.93
2024-01-04T07:03:32.618Z,5.90
2024-01-04T07:06:03.602Z,5.89
2024-01-04T07:08:33.502Z,5.89
2024-01-04T07:11:07.304Z,5.92
2024-01-04T07:13:38.010Z,5.95
2024-01-04T07:16:08.446Z,5.97
2024-01-04T07:18:38.716Z,6.03
2024-01-04T07:21:08.921Z,5.94
2024-01-04T07:23:38.849Z,5.92
2024-01-04T07:26:11.356Z,5.93
2024-01-04T07:28:41.706Z,5.92
2024-01-04T07:31:12.798Z,5.94
2024-01-04T07:33:42.931Z,5.91
2024-01-04T07:36:13.051Z,5.92
2024-01-04T07:38:42.962Z,5.91
2024-01-04T07:41:17.078Z,5.87
2024-01-04T07:43:46.979Z,5.89
2024-01-04T07:46:17.016Z,5.94
2024-01-04T07:48:46.990Z,5.95
2024-01-04T07:51:17.063Z,5.97
2024-01-04T07:53:47.224Z,5.99
2024-01-04T07:56:19.848Z,5.97
2024-01-04T07:58:49.764Z,5.98
2024-01-04T08:01:19.736Z,5.94
2024-01-04T08:03:49.766Z,5.97
2024-01-04T08:06:19.992Z,5.96
2024-01-04T08:08:49.942Z,5.95
2024-01-04T08:11:23.194Z,5.95
2024-01-04T08:13:53.264Z,5.94
2024-01-04T08:16:24.337Z,5.89
2024-01-04T08:18:54.398Z,5.84
2024-01-04T08:21:24.508Z,5.87
2024-01-04T08:23:55.604Z,5.95
2024-01-04T08:26:28.810Z,6.02
2024-01-04T08:28:58.816Z,6.09
2024-01-04T08:31:28.718Z,6.13
2024-01-04T08:33:58.689Z,6.14
2024-01-04T08:36:28.715Z,6.15
2024-01-04T08:39:00.824Z,6.21
2024-01-04T08:41:33.325Z,6.24
2024-01-04T08:44:04.615Z,6.26
2024-01-04T08:46:39.318Z,6.31
2024-01-04T08:49:13.405Z,6.34
2024-01-04T08:51:43.543Z,6.37
2024-01-04T08:54:13.615Z,6.41
2024-01-04T08:56:47.991Z,6.43
2024-01-04T08:59:18.013Z,6.42
2024-01-04T09:01:47.886Z,6.44
2024-01-04T09:04:20.264Z,6.44
2024-01-04T09:06:50.614Z,6.42
2024-01-04T09:09:20.599Z,6.40
2024-01-04T09:11:53.274Z,6.42
2024-01-04T09:14:23.372Z,6.39
2024-01-04T09:16:54.776Z,6.41
2024-01-04T09:19:27.357Z,6.43
2024-01-04T09:21:58.950Z,6.45
2024-01-04T09:24:29.052Z,6.44
2024-01-04T09:27:01.719Z,6.40
2024-01-04T09:29:31.853Z,6.38
2024-01-04T09:32:02.718Z,6.42
2024-01-04T09:34:32.853Z,6.48
2024-01-04T09:37:02.761Z,6.53
2024-01-04T09:39:34.273Z,6.58
2024-01-04T09:42:08.029Z,6.64
2024-01-04T09:44:39.303Z,6.68
2024-01-04T09:47:12.654Z,6.72
2024-01-04T09:49:43.567Z,6.76
2024-01-04T09:52:13.980Z,6.83
2024-01-04T09:54:46.762Z,6.88
2024-01-04T09:57:19.612Z,6.87
2024-01-04T09:59:49.532Z,6.88
2024-01-04T10:02:22.137Z,6.87
2024-01-04T10:04:56.159Z,6.81
2024-01-04T10:07:27.952Z,6.74
2024-01-04T10:10:04.054Z,6.67
2024-01-04T10:12:38.238Z,6.59
2024-01-04T10:15:09.576Z,6.58
2024-01-04T10:17:43.541Z,6.58
2024-01-04T10:20:14.964Z,6.43
2024-01-04T10:22:45.676Z,6.36
2024-01-04T10:25:19.809Z,6.42
2024-01-04T10:28:01.213Z,6.45
2024-01-04T10:30:31.221Z,6.41
2024-01-04T10:33:12.728Z,6.41
2024-01-04T10:35:42.901Z,6.40
2024-01-04T10:38:13.051Z,6.38
2024-01-04T10:40:45.046Z,6.35
2024-01-04T10:43:22.735Z,6.26
2024-01-04T10:45:54.795Z,6.23
2024-01-04T10:48:25.166Z,6.29
2024-01-04T10:50:56.343Z,6.34
2024-01-04T10:53:28.909Z,6.45
2024-01-04T10:55:59.764Z,6.58
2024-01-04T10:58:32.740Z,6.55
2024-01-04T11:01:03.689Z,6.55
2024-01-04T11:03:35.206Z,6.57
2024-01-04T11:06:09.505Z,6.52
2024-01-04T11:08:44.378Z,6.56
2024-01-04T11:11:12.604Z,6.64
2024-01-04T11:13:48.206Z,6.64
2024-01-04T11:17:15.586Z,6.56
2024-01-04T11:20:10.171Z,6.58
2024-01-04T11:22:55.896Z,6.60
2024-01-04T11:25:39.483Z,6.60
2024-01-04T11:28:11.509Z,6.60
2024-01-04T11:30:44.508Z,6.56
2024-01-04T11:33:15.339Z,6.56
2024-01-04T11:35:46.279Z,6.54
2024-01-04T11:38:18.659Z,6.55
2024-01-04T11:40:53.667Z,6.56
2024-01-04T11:43:24.145Z,6.50
2024-01-04T11:45:56.631Z,6.53
2024-01-04T11:48:26.578Z,6.55
2024-01-04T11:50:56.602Z,6.54
2024-01-04T11:53:26.543Z,6.50
2024-01-04T11:56:07.510Z,6.45
2024-01-04T11:58:37.457Z,6.41
2024-01-04T12:01:10.350Z,6.39
2024-01-04T12:03:40.320Z,6.35
2024-01-04T12:06:12.241Z,6.25
2024-01-04T12:08:42.276Z,6.25
2024-01-04T12:11:13.259Z,6.27
2024-01-04T12:13:45.191Z,6.24
2024-01-04T12:16:17.674Z,6.26
2024-01-04T12:18:48.186Z,6.31
2024-01-04T12:21:19.642Z,6.20
2024-01-04T12:23:51.298Z,6.18
2024-01-04T12:26:24.625Z,6.22
2024-01-04T12:28:55.407Z,6.15
2024-01-04T12:31:32.118Z,6.15
2024-01-04T12:34:02.200Z,6.12
2024-01-04T12:36:33.669Z,6.11
2024-01-04T12:39:14.326Z,6.18
2024-01-04T12:41:47.156Z,6.35
2024-01-04T12:44:19.056Z,6.46
2024-01-04T12:46:51.578Z,6.50
2024-01-04T12:49:24.896Z,6.51
2024-01-04T12:51:55.549Z,6.55
2024-01-04T12:54:25.679Z,6.55
2024-01-04T12:56:59.492Z,6.54
2024-01-04T12:59:29.485Z,6.49
2024-01-04T13:02:02.032Z,6.45
2024-01-04T13:04:32.013Z,6.38
2024-01-04T13:07:02.076Z,6.31
2024-01-04T13:09:33.141Z,6.32
2024-01-04T13:12:04.765Z,6.22
2024-01-04T13:14:34.924Z,6.24
2024-01-04T13:17:08.047Z,6.31
2024-01-04T13:19:38.016Z,6.27
2024-01-04T13:22:08.351Z,6.26
2024-01-04T13:24:39.134Z,6.22
2024-01-04T13:27:09.058Z,6.14
2024-01-04T13:29:39.089Z,6.14
2024-01-04T13:32:11.876Z,6.14
2024-01-04T13:34:41.986Z,6.17
2024-01-04T13:37:12.078Z,6.20
2024-01-04T13:39:46.104Z,6.20
2024-01-04T13:42:16.730Z,6.19
2024-01-04T13:44:46.767Z,6.20
2024-01-04T13:47:19.657Z,6.18
2024-01-04T13:49:49.909Z,6.18
2024-01-04T13:52:21.086Z,6.19
2024-01-04T13:54:52.166Z,6.21
2024-01-04T13:57:22.802Z,6.21
2024-01-04T13:59:52.733Z,6.17
2024-01-04T14:02:25.260Z,6.21
2024-01-04T14:04:55.190Z,6.17
2024-01-04T14:07:26.513Z,6.20
2024-01-04T14:09:56.885Z,6.25
2024-01-04T14:12:26.874Z,6.27
2024-01-04T14:14:56.768Z,6.27
2024-01-04T14:17:29.300Z,6.27
2024-01-04T14:19:59.301Z,6.24
2024-01-04T14:22:29.196Z,6.22
2024-01-04T14:24:59.557Z,6.18
2024-01-04T14:27:30.178Z,6.18
2024-01-04T14:30:00.079Z,6.23
2024-01-04T14:32:33.707Z,6.29
2024-01-04T14:35:06.412Z,6.31
2024-01-04T14:37:39.901Z,6.32
2024-01-04T14:40:11.699Z,6.27
2024-01-04T14:42:43.066Z,6.22
2024-01-04T14:45:17.856Z,6.21
2024-01-04T14:47:52.449Z,6.13
2024-01-04T14:50:23.440Z,6.13
2024-01-04T14:52:53.697Z,6.16
2024-01-04T14:55:27.594Z,6.21
2024-01-04T14:57:57.691Z,6.27
2024-01-04T15:00:27.903Z,6.32
2024-01-04T15:03:00.523Z,6.33
2024-01-04T15:05:31.881Z,6.29
2024-01-04T15:08:01.819Z,6.24
2024-01-04T15:10:31.686Z,6.18
2024-01-04T15:13:02.712Z,6.17
2024-01-04T15:15:37.808Z,6.18
2024-01-04T15:18:13.481Z,6.16
2024-01-04T15:20:45.189Z,6.13
2024-01-04T15:23:15.115Z,6.12
2024-01-04T15:25:45.112Z,6.11
2024-01-04T15:28:15.255Z,6.06
2024-01-04T15:30:45.353Z,5.98
2024-01-04T15:33:18.189Z,5.87
2024-01-04T15:35:48.441Z,5.82
2024-01-04T15:38:18.907Z,5.82
2024-01-04T15:40:49.769Z,5.78
2024-01-04T15:43:21.332Z,5.79
2024-01-04T15:45:51.288Z,5.74
2024-01-04T15:48:26.463Z,5.74
2024-01-04T15:50:56.655Z,5.68
2024-01-04T15:53:26.583Z,5.64
2024-01-04T15:55:57.280Z,5.62
2024-01-04T15:58:27.177Z,5.66
2024-01-04T16:00:57.277Z,5.64
2024-01-04T16:03:29.918Z,5.64
2024-01-04T16:05:59.944Z,5.66
2024-01-04T16:08:32.068Z,5.69
2024-01-04T16:11:03.560Z,5.69
2024-01-04T16:13:33.691Z,5.59
2024-01-04T16:16:04.727Z,5.57
2024-01-04T16:18:37.497Z,5.57
2024-01-04T16:21:12.252Z,5.63
2024-01-04T16:23:42.686Z,5.63
2024-01-04T16:26:18.044Z,5.63
2024-01-04T16:28:51.354Z,5.64
2024-01-04T16:31:23.388Z,5.62
2024-01-04T16:33:56.810Z,5.67
2024-01-04T16:36:28.525Z,5.67
2024-01-04T16:39:02.581Z,5.68
2024-01-04T16:41:33.884Z,5.63
2024-01-04T16:44:04.218Z,5.59
2024-01-04T16:46:34.375Z,5.58
2024-01-04T16:49:07.056Z,5.59
2024-01-04T16:51:39.038Z,5.59
2024-01-04T16:54:10.155Z,5.60
2024-01-04T16:56:40.142Z,5.57
2024-01-04T16:59:10.004Z,5.53
2024-01-04T17:01:40.819Z,5.51
2024-01-04T17:04:13.355Z,5.50
2024-01-04T17:06:43.290Z,5.46
2024-01-04T17:09:14.560Z,5.43
2024-01-04T17:11:44.501Z,5.41
2024-01-04T17:14:14.428Z,5.34
2024-01-04T17:16:44.362Z,5.36
2024-01-04T17:19:16.966Z,5.39
2024-01-04T17:21:46.949Z,5.38
2024-01-04T17:24:16.929Z,5.39
2024-01-04T17:26:46.843Z,5.42
2024-01-04T17:29:17.066Z,5.41
2024-01-04T17:31:47.117Z,5.45
2024-01-04T17:34:21.743Z,5.48
2024-01-04T17:36:51.802Z,5.56
2024-01-04T17:39:26.853Z,5.64
2024-01-04T17:41:56.866Z,5.73
2024-01-04T17:44:26.757Z,5.80
2024-01-04T17:46:57.465Z,5.84
2024-01-04T17:49:35.029Z,5.84
2024-01-04T17:52:08.106Z,5.83
2024-01-04T17:54:38.676Z,5.82
2024-01-04T17:57:14.523Z,5.80
2024-01-04T17:59:44.517Z,5.79
2024-01-04T18:02:14.875Z,5.81
2024-01-04T18:04:47.986Z,5.82
2024-01-04T18:07:20.129Z,5.84
2024-01-04T18:09:50.056Z,5.89
2024-01-04T18:12:20.947Z,5.92
2024-01-04T18:14:50.991Z,5.92
2024-01-04T18:17:23.544Z,5.88
2024-01-04T18:19:56.062Z,5.83
2024-01-04T18:22:26.007Z,5.78
2024-01-04T18:24:56.304Z,5.72
2024-01-04T18:27:26.381Z,5.71
2024-01-04T18:29:56.272Z,5.71
2024-01-04T18:32:27.163Z,5.73
2024-01-04T18:35:00.992Z,5.74
2024-01-04T18:37:30.884Z,5.77
2024-01-04T18:40:03.591Z,5.78
2024-01-04T18:42:33.501Z,5.81
2024-01-04T18:45:03.502Z,5.79
2024-01-04T18:47:34.321Z,5.77
2024-01-04T18:50:08.587Z,5.80
2024-01-04T18:52:38.639Z,5.75
2024-01-04T18:55:11.606Z,5.67
2024-01-04T18:57:41.504Z,5.64
2024-01-04T19:00:13.937Z,5.59
2024-01-04T19:02:43.976Z,5.57
2024-01-04T19:05:16.666Z,5.59
2024-01-04T19:07:46.570Z,5.59
2024-01-04T19:10:16.917Z,5.59
2024-01-04T19:12:46.836Z,5.54
2024-01-04T19:15:21.341Z,5.37
2024-01-04T19:17:54.783Z,5.31
2024-01-04T19:20:28.892Z,5.36
2024-01-04T19:23:00.239Z,5.36
2024-01-04T19:25:30.150Z,5.40
2024-01-04T19:28:00.005Z,5.42
2024-01-04T19:30:30.045Z,5.43
2024-01-04T19:33:00.116Z,5.40
2024-01-04T19:35:35.636Z,5.39
2024-01-04T19:38:06.774Z,5.34
2024-01-04T19:40:38.214Z,5.25
2024-01-04T19:43:08.769Z,5.19
2024-01-04T19:45:38.749Z,5.00
2024-01-04T19:48:09.623Z,4.90
2024-01-04T19:50:42.180Z,4.90
2024-01-04T19:53:12.244Z,4.94
2024-01-04T19:55:42.094Z,5.01
2024-01-04T19:58:12.330Z,4.93
2024-01-04T20:00:42.971Z,4.95
2024-01-04T20:03:12.961Z,4.81
2024-01-04T20:05:46.693Z,4.77
2024-01-04T20:08:16.649Z,4.80
2024-01-04T20:10:46.931Z,4.90
2024-01-04T20:13:16.825Z,4.88
2024-01-04T20:15:46.774Z,4.85
2024-01-04T20:18:16.796Z,4.74
2024-01-04T20:20:49.381Z,4.73
2024-01-04T20:23:19.364Z,4.73
2024-01-04T20:25:49.259Z,4.71
2024-01-04T20:28:19.143Z,4.63
2024-01-04T20:30:49.202Z,4.57
2024-01-04T20:33:19.416Z,4.57
2024-01-04T20:35:52.101Z,4.62
2024-01-04T20:38:27.297Z,4.50
2024-01-04T20:40:58.830Z,4.44
2024-01-04T20:43:26.194Z,4.29
2024-01-04T20:45:57.946Z,4.34
2024-01-04T20:48:27.899Z,4.38
2024-01-04T20:51:05.887Z,4.31
2024-01-04T20:53:36.934Z,4.27
2024-01-04T20:56:07.403Z,4.24
2024-01-04T20:58:38.947Z,4.22
2024-01-04T21:01:09.328Z,4.14
2024-01-04T21:03:39.363Z,4.08
2024-01-04T21:06:12.502Z,4.26
2024-01-04T21:08:42.613Z,4.34
2024-01-04T21:11:14.550Z,4.23
2024-01-04T21:13:44.496Z,4.13
2024-01-04T21:16:14.413Z,4.00
2024-01-04T21:18:44.410Z,4.06
2024-01-04T21:21:18.006Z,4.07
2024-01-04T21:23:48.020Z,4.19
2024-01-04T21:26:17.960Z,4.19
2024-01-04T21:28:47.869Z,4.20
2024-01-04T21:31:17.913Z,4.11
2024-01-04T21:33:48.209Z,4.10
2024-01-04T21:36:21.318Z,4.07
2024-01-04T21:38:55.681Z,3.81
2024-01-04T21:41:25.768Z,3.89
2024-01-04T21:43:55.690Z,3.88
2024-01-04T21:46:25.574Z,3.97
2024-01-04T21:48:55.651Z,3.77
2024-01-04T21:51:28.234Z,3.69
2024-01-04T21:53:59.703Z,3.84
2024-01-04T21:56:32.034Z,3.73
2024-01-04T21:59:02.301Z,3.57
2024-01-04T22:01:37.450Z,3.59
2024-01-04T22:04:08.196Z,3.65
2024-01-04T22:06:41.170Z,3.71
2024-01-04T22:09:11.684Z,3.66
2024-01-04T22:11:43.153Z,3.53
2024-01-04T22:14:13.516Z,3.58
2024-01-04T22:16:45.691Z,3.69
2024-01-04T22:19:16.054Z,3.91
2024-01-04T22:21:49.312Z,3.85
2024-01-04T22:24:20.003Z,3.79
2024-01-04T22:26:51.790Z,3.79
2024-01-04T22:29:21.677Z,3.76
2024-01-04T22:31:51.677Z,3.63
2024-01-04T22:34:21.686Z,3.44
2024-01-04T22:36:54.308Z,3.50
2024-01-04T22:39:24.302Z,3.53
2024-01-04T22:41:54.341Z,3.61
2024-01-04T22:44:25.098Z,3.57
2024-01-04T22:46:55.076Z,3.59
2024-01-04T22:49:25.665Z,3.55
2024-01-04T22:51:58.967Z,3.18
2024-01-04T22:54:28.955Z,3.04
2024-01-04T22:56:59.357Z,3.07
2024-01-04T22:59:29.296Z,3.26
2024-01-04T23:01:59.655Z,3.21
2024-01-04T23:04:30.063Z,3.16
2024-01-04T23:07:02.967Z,3.23
2024-01-04T23:09:33.109Z,2.97
2024-01-04T23:12:03.188Z,2.93
2024-01-04T23:14:33.093Z,3.00
2024-01-04T23:17:04.734Z,2.90
2024-01-04T23:19:34.782Z,3.01
2024-01-04T23:22:08.297Z,3.18
2024-01-04T23:24:38.358Z,3.21
2024-01-04T23:27:08.736Z,3.17
2024-01-04T23:29:38.725Z,3.24
2024-01-04T23:32:10.941Z,3.11
2024-01-04T23:34:41.183Z,3.04
2024-01-04T23:37:13.778Z,3.03
2024-01-04T23:39:44.159Z,2.96
2024-01-04T23:42:15.267Z,2.89
2024-01-04T23:44:45.222Z,2.86
2024-01-04T23:47:15.244Z,2.79
2024-01-04T23:49:45.579Z,2.84
2024-01-04T23:52:18.183Z,2.94
2024-01-04T23:54:48.086Z,3.11
2024-01-04T23:57:18.006Z,3.23
2024-01-04T23:59:47.949Z,3.35
